Time;durP1;ratioP1;P1;durP2;ratioP2;P2;SDS_P1;SDS_P2;PMS_P1;PMS_P2;Temp;Humidity;BMP_temperature;BMP_pressure;BME280_temperature;BME280_humidity;BME280_pressure;Samples;Min_cycle;Max_cycle;Signal;HPM_P1;HPM_P2
2022/08/22 00:01:14;;;;;;;;;3.67;3.67;;;;;-145.03;100.00;62373.16;4995488;28;46161;-79
2022/08/22 00:04:08;;;;;;;;;3.00;3.00;;;;;-145.03;100.00;62373.16;4995916;28;45499;-78
2022/08/22 00:07:00;;;;;;;;;1.33;1.33;;;;;-145.03;100.00;62373.16;4992480;28;45610;-79
2022/08/22 00:09:52;;;;;;;;;3.00;3.00;;;;;-145.03;100.00;62373.16;4995318;28;45516;-79
2022/08/22 00:12:28;;;;;;;;;4.00;2.00;;;;;-145.03;100.00;62373.16;5043719;28;47666;-80
2022/08/22 00:15:16;;;;;;;;;2.67;2.67;;;;;-145.03;100.00;62373.16;5058005;28;45425;-80
2022/08/22 00:17:54;;;;;;;;;2.67;1.67;;;;;-145.03;100.00;62373.16;5038365;28;45403;-79
2022/08/22 00:20:37;;;;;;;;;2.00;2.00;;;;;-145.03;100.00;62373.16;5038527;28;45445;-79
2022/08/22 00:23:23;;;;;;;;;3.67;2.00;;;;;-145.03;100.00;62373.16;5037558;28;46197;-79
2022/08/22 00:25:56;;;;;;;;;2.00;2.00;;;;;-145.03;100.00;62373.16;5053829;28;45471;-80
2022/08/22 00:28:27;;;;;;;;;4.00;3.33;;;;;-145.03;100.00;62373.16;5053464;28;45398;-72
2022/08/22 00:31:17;;;;;;;;;5.00;2.00;;;;;-145.03;100.00;62373.16;5040251;28;45592;-72
2022/08/22 00:33:49;;;;;;;;;2.67;2.00;;;;;-145.03;100.00;62373.16;5054564;28;47225;-72
2022/08/22 00:36:22;;;;;;;;;2.00;2.00;;;;;-145.03;100.00;62373.16;5039320;28;46178;-73
2022/08/22 00:39:05;;;;;;;;;2.00;2.00;;;;;-145.03;100.00;62373.16;5052695;28;45511;-72
2022/08/22 00:42:07;;;;;;;;;3.67;2.67;;;;;-145.03;100.00;62373.16;5038216;28;46499;-72
2022/08/22 00:44:53;;;;;;;;;2.00;1.67;;;;;-145.03;100.00;62373.16;5068409;28;46445;-72
2022/08/22 00:47:36;;;;;;;;;2.33;1.33;;;;;-145.03;100.00;62373.16;5077637;28;45699;-73
2022/08/22 00:50:20;;;;;;;;;1.33;1.33;;;;;-145.03;100.00;62373.16;5072267;27;45403;-72
2022/08/22 00:52:58;;;;;;;;;2.00;2.00;;;;;-145.03;100.00;62373.16;5077012;27;45448;-72
2022/08/22 00:55:57;;;;;;;;;1.00;1.00;;;;;-145.03;100.00;62373.16;5080014;27;46404;-72
2022/08/22 00:58:58;;;;;;;;;3.00;3.00;;;;;-145.03;100.00;62373.16;5076233;28;45546;-72
2022/08/22 01:01:34;;;;;;;;;2.00;2.00;;;;;-145.03;100.00;62373.16;5077551;27;45485;-72
2022/08/22 01:04:13;;;;;;;;;3.00;3.00;;;;;-145.03;100.00;62373.16;5077812;28;45439;-72
2022/08/22 01:06:47;;;;;;;;;4.33;1.67;;;;;-145.03;100.00;62373.16;5083524;27;46235;-72
2022/08/22 01:09:41;;;;;;;;;1.00;1.00;;;;;-145.03;100.00;62373.16;5070933;28;45385;-72
2022/08/22 01:12:28;;;;;;;;;2.00;1.00;;;;;-145.03;100.00;62373.16;5070932;27;45613;-72
2022/08/22 01:14:59;;;;;;;;;2.00;2.00;;;;;-145.03;100.00;62373.16;5062542;27;45563;-72
2022/08/22 01:17:49;;;;;;;;;2.00;2.00;;;;;-145.03;100.00;62373.16;5070365;27;46131;-72
2022/08/22 01:20:36;;;;;;;;;2.00;2.00;;;;;-145.03;100.00;62373.16;5058477;27;45508;-72
2022/08/22 01:23:20;;;;;;;;;1.33;1.33;;;;;-145.03;100.00;62373.16;5061112;27;45696;-72
2022/08/22 01:26:35;;;;;;;;;1.33;1.33;;;;;-145.03;100.00;62373.16;5071875;27;45656;-72
2022/08/22 01:29:19;;;;;;;;;3.00;1.00;;;;;-145.03;100.00;62373.16;5037321;28;45717;-72
2022/08/22 01:32:28;;;;;;;;;3.00;2.00;;;;;-145.03;100.00;62373.16;5033172;28;45441;-72
2022/08/22 01:35:12;;;;;;;;;1.50;1.50;;;;;-145.03;100.00;62373.16;5016556;28;45593;-72
2022/08/22 01:38:07;;;;;;;;;3.00;3.00;;;;;-145.03;100.00;62373.16;5032013;28;45609;-72
2022/08/22 01:41:15;;;;;;;;;3.00;2.00;;;;;-145.03;100.00;62373.16;5029628;28;46716;-72
2022/08/22 01:44:02;;;;;;;;;2.00;2.00;;;;;-145.03;100.00;62373.16;5028200;28;45659;-72
2022/08/22 01:46:49;;;;;;;;;4.00;2.00;;;;;-145.03;100.00;62373.16;5033404;28;45484;-72
2022/08/22 01:49:28;;;;;;;;;0.67;0.67;;;;;-145.03;100.00;62373.16;5032262;28;45518;-72
2022/08/22 01:52:03;;;;;;;;;4.00;2.33;;;;;-145.03;100.00;62373.16;5032278;28;46936;-72
2022/08/22 01:54:41;;;;;;;;;5.67;2.33;;;;;-145.03;100.00;62373.16;5032881;28;45448;-72
2022/08/22 01:57:08;;;;;;;;;1.33;1.33;;;;;-145.03;100.00;62373.16;5048656;28;45578;-72
2022/08/22 01:59:53;;;;;;;;;4.00;3.00;;;;;-145.03;100.00;62373.16;5032376;28;45488;-72
2022/08/22 02:02:35;;;;;;;;;2.33;2.00;;;;;-145.03;100.00;62373.16;5040487;28;46981;-72
2022/08/22 02:05:15;;;;;;;;;4.67;3.67;;;;;-145.03;100.00;62373.16;5055749;28;45422;-72
2022/08/22 02:08:16;;;;;;;;;1.00;1.00;;;;;-145.03;100.00;62373.16;5063135;27;45605;-72
2022/08/22 02:10:44;;;;;;;;;1.67;1.67;;;;;-145.03;100.00;62373.16;5059199;27;45601;-72
2022/08/22 02:13:12;;;;;;;;;0.00;0.00;;;;;-145.03;100.00;62373.16;5067247;27;46481;-72
2022/08/22 02:15:37;;;;;;;;;2.00;2.00;;;;;-145.03;100.00;62373.16;5073433;28;45463;-72
2022/08/22 02:18:05;;;;;;;;;2.00;2.00;;;;;-145.03;100.00;62373.16;5076719;28;45458;-72
2022/08/22 02:20:36;;;;;;;;;2.00;2.00;;;;;-145.03;100.00;62373.16;5061174;27;45639;-72
2022/08/22 02:23:26;;;;;;;;;2.00;2.00;;;;;-145.03;100.00;62373.16;5064202;27;47098;-72
2022/08/22 02:25:55;;;;;;;;;2.00;2.00;;;;;-145.03;100.00;62373.16;5057765;27;45370;-72
2022/08/22 02:28:39;;;;;;;;;2.67;2.67;;;;;-145.03;100.00;62373.16;5061252;27;45507;-79
2022/08/22 02:31:14;;;;;;;;;2.00;2.00;;;;;-145.03;100.00;62373.16;5067865;27;45378;-79
2022/08/22 02:33:56;;;;;;;;;2.00;2.00;;;;;-145.03;100.00;62373.16;5068309;27;46299;-79
2022/08/22 02:36:52;;;;;;;;;3.00;3.00;;;;;-145.03;100.00;62373.16;5056167;28;45442;-81
2022/08/22 02:39:31;;;;;;;;;2.67;2.67;;;;;-145.03;100.00;62373.16;5053917;27;45395;-80
2022/08/22 02:42:16;;;;;;;;;4.00;2.33;;;;;-145.03;100.00;62373.16;5060221;27;45482;-80
2022/08/22 02:44:47;;;;;;;;;2.33;2.00;;;;;-145.03;100.00;62373.16;5055843;28;47204;-80
2022/08/22 02:47:44;;;;;;;;;2.00;2.00;;;;;-145.03;100.00;62373.16;5057511;27;45608;-80
2022/08/22 02:50:37;;;;;;;;;3.00;3.00;;;;;-145.03;100.00;62373.16;5063347;27;45606;-80
2022/08/22 02:53:36;;;;;;;;;1.33;1.33;;;;;-145.03;100.00;62373.16;5064990;27;45453;-80
2022/08/22 02:56:10;;;;;;;;;2.00;2.00;;;;;-145.03;100.00;62373.16;5007281;28;46241;-80
2022/08/22 02:58:46;;;;;;;;;3.00;3.00;;;;;-145.03;100.00;62373.16;4996944;28;45619;-80
2022/08/22 03:01:40;;;;;;;;;0.75;0.75;;;;;-145.03;100.00;62373.16;5004616;28;45555;-80
2022/08/22 03:04:24;;;;;;;;;2.00;2.00;;;;;-145.03;100.00;62373.16;4998495;28;45474;-80
2022/08/22 03:07:20;;;;;;;;;2.00;2.00;;;;;-145.03;100.00;62373.16;5006784;28;45549;-80
2022/08/22 03:09:58;;;;;;;;;2.00;1.00;;;;;-145.03;100.00;62373.16;4997306;28;45439;-80
2022/08/22 03:12:43;;;;;;;;;2.00;2.00;;;;;-145.03;100.00;62373.16;5001110;28;45662;-80
2022/08/22 03:15:17;;;;;;;;;4.00;3.00;;;;;-145.03;100.00;62373.16;5016727;28;45526;-80
2022/08/22 03:17:59;;;;;;;;;2.67;1.33;;;;;-145.03;100.00;62373.16;5015082;28;46732;-80
2022/08/22 03:20:39;;;;;;;;;1.33;1.33;;;;;-145.03;100.00;62373.16;5015538;28;45706;-80
2022/08/22 03:23:15;;;;;;;;;3.00;2.00;;;;;-145.03;100.00;62373.16;4997857;28;45633;-80
2022/08/22 03:25:57;;;;;;;;;3.00;3.00;;;;;-145.03;100.00;62373.16;5022866;28;46138;-80
2022/08/22 03:28:48;;;;;;;;;3.00;3.00;;;;;-145.03;100.00;62373.16;5021827;28;46342;-80
2022/08/22 03:31:21;;;;;;;;;2.00;1.00;;;;;-145.03;100.00;62373.16;5023176;28;45496;-80
2022/08/22 03:34:21;;;;;;;;;4.00;1.67;;;;;-145.03;100.00;62373.16;5060439;27;45453;-79
2022/08/22 03:37:14;;;;;;;;;2.33;2.33;;;;;-145.03;100.00;62373.16;5058572;27;45589;-80
2022/08/22 03:40:01;;;;;;;;;2.00;2.00;;;;;-145.03;100.00;62373.16;5068179;28;45409;-80
2022/08/22 03:42:43;;;;;;;;;1.00;1.00;;;;;-145.03;100.00;62373.16;5076921;28;45448;-80
2022/08/22 03:45:32;;;;;;;;;5.33;2.33;;;;;-145.03;100.00;62373.16;5066504;27;47163;-80
2022/08/22 03:48:44;;;;;;;;;5.00;2.67;;;;;-145.03;100.00;62373.16;5074138;28;45466;-80
2022/08/22 03:51:19;;;;;;;;;3.33;3.00;;;;;-145.03;100.00;62373.16;5065121;27;45437;-80
2022/08/22 03:53:53;;;;;;;;;2.00;2.00;;;;;-145.03;100.00;62373.16;5077636;28;45458;-80
2022/08/22 03:56:37;;;;;;;;;3.00;2.00;;;;;-145.03;100.00;62373.16;5077994;28;45422;-79
2022/08/22 03:59:34;;;;;;;;;3.00;3.00;;;;;-145.03;100.00;62373.16;5063605;27;45514;-80
2022/08/22 04:02:48;;;;;;;;;3.00;2.33;;;;;-145.03;100.00;62373.16;5070655;27;46202;-79
2022/08/22 04:05:16;;;;;;;;;2.00;2.00;;;;;-145.03;100.00;62373.16;5073114;27;45563;-79
2022/08/22 04:08:08;;;;;;;;;5.33;3.00;;;;;-145.03;100.00;62373.16;5073002;28;45567;-79
2022/08/22 04:10:50;;;;;;;;;3.33;3.33;;;;;-145.03;100.00;62373.16;5067932;28;45579;-80
2022/08/22 04:13:33;;;;;;;;;2.00;2.00;;;;;-145.03;100.00;62373.16;5077289;28;47179;-79
2022/08/22 04:16:30;;;;;;;;;1.00;1.00;;;;;-145.03;100.00;62373.16;5064196;28;45431;-79
2022/08/22 04:19:04;;;;;;;;;2.00;1.00;;;;;-145.03;100.00;62373.16;5066004;27;45455;-79
2022/08/22 04:22:06;;;;;;;;;3.00;2.00;;;;;-145.03;100.00;62373.16;5073967;27;47090;-79
2022/08/22 04:25:14;;;;;;;;;2.67;1.00;;;;;-145.03;100.00;62373.16;5059010;27;47190;-79
2022/08/22 04:27:48;;;;;;;;;2.00;2.00;;;;;-145.03;100.00;62373.16;5055664;27;45503;-72
2022/08/22 04:30:37;;;;;;;;;2.33;2.33;;;;;-145.03;100.00;62373.16;5057153;27;45442;-73
2022/08/22 04:33:16;;;;;;;;;4.00;3.00;;;;;-145.03;100.00;62373.16;5057873;27;45412;-72
2022/08/22 04:35:44;;;;;;;;;3.00;3.00;;;;;-145.03;100.00;62373.16;5077214;27;46070;-72
2022/08/22 04:38:31;;;;;;;;;4.00;2.00;;;;;-145.03;100.00;62373.16;5069277;27;45505;-72
2022/08/22 04:41:06;;;;;;;;;2.00;2.00;;;;;-145.03;100.00;62373.16;5069277;27;45663;-72
2022/08/22 04:43:37;;;;;;;;;2.00;2.00;;;;;-145.03;100.00;62373.16;5066239;27;45402;-73
2022/08/22 04:46:32;;;;;;;;;2.00;2.00;;;;;-145.03;100.00;62373.16;5072544;27;47263;-72
2022/08/22 04:49:01;;;;;;;;;2.33;2.00;;;;;-145.03;100.00;62373.16;5065684;27;45624;-72
2022/08/22 04:51:39;;;;;;;;;5.33;4.00;;;;;-145.03;100.00;62373.16;5064114;27;45814;-72
2022/08/22 04:54:32;;;;;;;;;3.00;2.33;;;;;-145.03;100.00;62373.16;5063204;27;45556;-72
2022/08/22 04:57:23;;;;;;;;;2.00;2.00;;;;;-145.03;100.00;62373.16;5056523;27;47078;-72
2022/08/22 04:59:49;;;;;;;;;3.00;3.00;;;;;-145.03;100.00;62373.16;5064231;27;45788;-72
2022/08/22 05:02:26;;;;;;;;;2.00;2.00;;;;;-145.03;100.00;62373.16;5077970;27;45473;-72
2022/08/22 05:05:04;;;;;;;;;1.33;1.33;;;;;-145.03;100.00;62373.16;5075465;27;45476;-72
2022/08/22 05:07:35;;;;;;;;;2.00;2.00;;;;;-145.03;100.00;62373.16;5065951;27;47172;-72
2022/08/22 05:10:03;;;;;;;;;1.33;1.33;;;;;-145.03;100.00;62373.16;5060920;27;45445;-72
2022/08/22 05:12:43;;;;;;;;;2.67;2.33;;;;;-145.03;100.00;62373.16;5056937;28;45436;-72
2022/08/22 05:15:17;;;;;;;;;2.00;2.00;;;;;-145.03;100.00;62373.16;5070858;27;45445;-72
2022/08/22 05:17:47;;;;;;;;;3.00;3.00;;;;;-145.03;100.00;62373.16;5058877;27;47215;-72
2022/08/22 05:20:19;;;;;;;;;1.00;1.00;;;;;-145.03;100.00;62373.16;5076332;28;45389;-72
2022/08/22 05:22:51;;;;;;;;;4.33;4.00;;;;;-145.03;100.00;62373.16;5076758;27;45500;-72
2022/08/22 05:25:25;;;;;;;;;3.33;2.00;;;;;-145.03;100.00;62373.16;5057439;27;45472;-72
2022/08/22 05:28:03;;;;;;;;;2.67;2.67;;;;;-145.03;100.00;62373.16;5056753;27;46630;-80
2022/08/22 05:30:32;;;;;;;;;2.33;2.00;;;;;-145.03;100.00;62373.16;5056380;27;45598;-80
2022/08/22 05:33:22;;;;;;;;;2.33;2.33;;;;;-145.03;100.00;62373.16;5056888;28;45355;-80
2022/08/22 05:35:57;;;;;;;;;2.00;2.00;;;;;-145.03;100.00;62373.16;5059594;27;45619;-80
2022/08/22 05:38:29;;;;;;;;;3.00;3.00;;;;;-145.03;100.00;62373.16;5060734;27;46265;-80
2022/08/22 05:41:02;;;;;;;;;2.00;2.00;;;;;-145.03;100.00;62373.16;5059908;27;45503;-80
2022/08/22 05:43:27;;;;;;;;;4.00;4.00;;;;;-145.03;100.00;62373.16;5075211;27;45425;-80
2022/08/22 05:45:57;;;;;;;;;4.00;2.33;;;;;-145.03;100.00;62373.16;5072348;28;45541;-80
2022/08/22 05:48:41;;;;;;;;;3.00;3.00;;;;;-145.03;100.00;62373.16;5060449;27;46183;-81
2022/08/22 05:51:21;;;;;;;;;4.67;3.00;;;;;-145.03;100.00;62373.16;5058834;27;45508;-80
2022/08/22 05:53:55;;;;;;;;;2.00;2.00;;;;;-145.03;100.00;62373.16;5065675;27;45489;-80
2022/08/22 05:56:33;;;;;;;;;1.00;1.00;;;;;-145.03;100.00;62373.16;5074697;27;45452;-80
2022/08/22 05:59:14;;;;;;;;;3.67;3.00;;;;;-145.03;100.00;62373.16;5060333;27;47043;-80
2022/08/22 06:02:10;;;;;;;;;2.67;2.67;;;;;-145.03;100.00;62373.16;5076727;28;45478;-80
2022/08/22 06:04:53;;;;;;;;;2.33;2.33;;;;;-145.03;100.00;62373.16;5075624;28;45501;-80
2022/08/22 06:07:38;;;;;;;;;3.00;3.00;;;;;-145.03;100.00;62373.16;5072257;27;45558;-80
2022/08/22 06:10:21;;;;;;;;;4.00;3.00;;;;;-145.03;100.00;62373.16;5072766;28;46430;-80
2022/08/22 06:12:57;;;;;;;;;3.00;2.33;;;;;-145.03;100.00;62373.16;5056151;28;45434;-80
2022/08/22 06:15:39;;;;;;;;;3.00;3.00;;;;;-145.03;100.00;62373.16;5070812;27;45469;-80
2022/08/22 06:18:09;;;;;;;;;2.67;2.33;;;;;-145.03;100.00;62373.16;5066818;27;45503;-81
2022/08/22 06:20:44;;;;;;;;;4.00;3.00;;;;;-145.03;100.00;62373.16;5071306;28;47434;-81
2022/08/22 06:23:31;;;;;;;;;1.00;1.00;;;;;-145.03;100.00;62373.16;5056035;27;45488;-80
2022/08/22 06:26:00;;;;;;;;;3.00;3.00;;;;;-145.03;100.00;62373.16;5058690;27;45400;-80
2022/08/22 06:28:32;;;;;;;;;3.00;3.00;;;;;-145.03;100.00;62373.16;5057345;27;45737;-80
2022/08/22 06:30:59;;;;;;;;;2.67;2.67;;;;;-145.03;100.00;62373.16;5054710;27;46348;-79
2022/08/22 06:33:32;;;;;;;;;5.00;3.67;;;;;-145.03;100.00;62373.16;5065566;28;45789;-79
2022/08/22 06:36:32;;;;;;;;;3.33;3.00;;;;;-145.03;100.00;62373.16;5088570;27;45489;-80
2022/08/22 06:39:22;;;;;;;;;1.67;1.67;;;;;-145.03;100.00;62373.16;5057080;27;45582;-79
2022/08/22 06:42:00;;;;;;;;;4.67;2.67;;;;;-145.03;100.00;62373.16;5062923;27;47157;-80
2022/08/22 06:44:34;;;;;;;;;2.33;2.33;;;;;-145.03;100.00;62373.16;5070830;27;45465;-76
2022/08/22 06:47:04;;;;;;;;;4.33;3.67;;;;;-145.03;100.00;62373.16;5075083;27;45468;-80
2022/08/22 06:49:34;;;;;;;;;3.33;3.00;;;;;-145.03;100.00;62373.16;5069443;27;45747;-85
2022/08/22 06:52:05;;;;;;;;;2.33;2.33;;;;;-145.03;100.00;62373.16;5066534;27;45608;-76
2022/08/22 06:54:35;;;;;;;;;3.33;2.33;;;;;-145.03;100.00;62373.16;5074720;27;45701;-72
2022/08/22 06:57:03;;;;;;;;;5.33;2.00;;;;;-145.03;100.00;62373.16;5074643;27;45636;-72
2022/08/22 06:59:32;;;;;;;;;4.00;3.00;;;;;-145.03;100.00;62373.16;5075818;27;45559;-80
2022/08/22 07:02:09;;;;;;;;;3.00;3.00;;;;;-145.03;100.00;62373.16;5081271;27;45711;-81
2022/08/22 07:04:35;;;;;;;;;4.33;4.00;;;;;-145.03;100.00;62373.16;5061816;27;45659;-81
2022/08/22 07:07:01;;;;;;;;;4.00;3.00;;;;;-145.03;100.00;62373.16;5068182;27;45540;-77
2022/08/22 07:09:33;;;;;;;;;4.33;3.00;;;;;-145.03;100.00;62373.16;5061953;28;45508;-77
2022/08/22 07:12:02;;;;;;;;;3.00;3.00;;;;;-145.03;100.00;62373.16;5059709;28;47030;-82
2022/08/22 07:14:42;;;;;;;;;1.67;1.67;;;;;-145.03;100.00;62373.16;5065745;27;45727;-74
2022/08/22 07:17:16;;;;;;;;;3.00;3.00;;;;;-145.03;100.00;62373.16;5062954;28;45537;-81
2022/08/22 07:19:55;;;;;;;;;2.00;2.00;;;;;-145.03;100.00;62373.16;5058421;28;45595;-77
2022/08/22 07:22:24;;;;;;;;;3.25;1.75;;;;;-145.03;100.00;62373.16;5060207;28;46548;-77
2022/08/22 07:24:54;;;;;;;;;4.00;3.00;;;;;-145.03;100.00;62373.16;5071970;28;45569;-76
2022/08/22 07:27:50;;;;;;;;;4.33;2.33;;;;;-145.03;100.00;62373.16;5058355;28;45756;-76
2022/08/22 07:30:18;;;;;;;;;2.33;2.33;;;;;-145.03;100.00;62373.16;5060420;27;45591;-75
2022/08/22 07:33:00;;;;;;;;;3.67;3.67;;;;;-145.03;100.00;62373.16;5060944;28;46283;-75
2022/08/22 07:35:35;;;;;;;;;3.00;2.00;;;;;-145.03;100.00;62373.16;5079622;27;45876;-72
2022/08/22 07:38:07;;;;;;;;;2.50;2.25;;;;;-145.03;100.00;62373.16;5058291;28;45555;-71
2022/08/22 07:40:53;;;;;;;;;2.67;2.67;;;;;-145.03;100.00;62373.16;5062185;28;45492;-73
2022/08/22 07:43:29;;;;;;;;;3.00;3.00;;;;;-145.03;100.00;62373.16;5075491;28;46242;-73
2022/08/22 07:46:08;;;;;;;;;4.00;3.00;;;;;-145.03;100.00;62373.16;5072242;28;45330;-74
2022/08/22 07:48:43;;;;;;;;;3.00;3.00;;;;;-145.03;100.00;62373.16;5067355;28;45571;-76
2022/08/22 07:51:16;;;;;;;;;2.33;2.00;;;;;-145.03;100.00;62373.16;5074637;28;45543;-75
2022/08/22 07:53:50;;;;;;;;;4.00;4.00;;;;;-145.03;100.00;62373.16;5072582;27;46639;-74
2022/08/22 07:56:22;;;;;;;;;5.00;3.00;;;;;-145.03;100.00;62373.16;5060623;28;45383;-75
2022/08/22 07:58:54;;;;;;;;;2.67;2.67;;;;;-145.03;100.00;62373.16;5050031;28;45509;-74
2022/08/22 08:01:22;;;;;;;;;3.00;3.00;;;;;-145.03;100.00;62373.16;5026251;28;45725;-75
2022/08/22 08:04:02;;;;;;;;;3.33;3.33;;;;;-145.03;100.00;62373.16;5060292;28;45564;-75
2022/08/22 08:06:30;;;;;;;;;3.00;3.00;;;;;-145.03;100.00;62373.16;5064515;28;45640;-74
2022/08/22 08:08:56;;;;;;;;;3.33;3.00;;;;;-145.03;100.00;62373.16;5054546;28;45505;-75
2022/08/22 08:11:26;;;;;;;;;2.00;2.00;;;;;-145.03;100.00;62373.16;5069667;28;45533;-75
2022/08/22 08:13:58;;;;;;;;;2.00;2.00;;;;;-145.03;100.00;62373.16;5078121;28;46381;-75
2022/08/22 08:16:29;;;;;;;;;4.00;3.00;;;;;-145.03;100.00;62373.16;5078351;28;45908;-74
2022/08/22 08:18:58;;;;;;;;;2.00;2.00;;;;;-145.03;100.00;62373.16;5078732;28;45489;-74
2022/08/22 08:21:33;;;;;;;;;6.33;3.00;;;;;-145.03;100.00;62373.16;5078634;28;45564;-75
2022/08/22 08:24:00;;;;;;;;;5.00;3.33;;;;;-145.03;100.00;62373.16;5078275;28;46293;-75
2022/08/22 08:26:38;;;;;;;;;4.00;3.00;;;;;-145.03;100.00;62373.16;5078482;28;45522;-74
2022/08/22 08:29:06;;;;;;;;;2.00;2.00;;;;;-145.03;100.00;62373.16;5078905;28;45680;-75
2022/08/22 08:31:41;;;;;;;;;3.33;2.00;;;;;-145.03;100.00;62373.16;5078601;28;45538;-74
2022/08/22 08:34:18;;;;;;;;;4.33;2.00;;;;;-145.03;100.00;62373.16;5078253;28;46351;-74
2022/08/22 08:36:53;;;;;;;;;3.00;3.00;;;;;-145.03;100.00;62373.16;5078382;28;45504;-74
2022/08/22 08:39:39;;;;;;;;;2.33;2.00;;;;;-145.03;100.00;62373.16;5078495;28;45434;-74
2022/08/22 08:43:25;;;;;;;;;3.33;3.00;;;;;-145.03;100.00;62373.16;5056755;28;45405;-74
2022/08/22 08:45:24;;;;;;;;;3.25;3.25;;;;;-145.03;100.00;62373.16;5037238;28;46296;-75
2022/08/22 08:47:52;;;;;;;;;6.00;4.00;;;;;-145.03;100.00;62373.16;5037653;28;45441;-75
2022/08/22 08:50:39;;;;;;;;;1.75;1.75;;;;;-145.03;100.00;62373.16;5037922;28;45360;-74
2022/08/22 08:53:10;;;;;;;;;3.00;3.00;;;;;-145.03;100.00;62373.16;5042255;28;45592;-75
2022/08/22 08:56:05;;;;;;;;;3.75;3.00;;;;;-145.03;100.00;62373.16;5057747;28;45592;-75
2022/08/22 08:59:29;;;;;;;;;2.25;2.00;;;;;-145.03;100.00;62373.16;5057346;28;45448;-75
2022/08/22 09:02:06;;;;;;;;;3.25;2.00;;;;;-145.03;100.00;62373.16;5047749;28;45453;-75
2022/08/22 09:04:34;;;;;;;;;3.50;3.50;;;;;-145.03;100.00;62373.16;5057802;28;45491;-74
2022/08/22 09:07:02;;;;;;;;;2.25;2.00;;;;;-145.03;100.00;62373.16;5057323;28;46065;-75
2022/08/22 09:10:03;;;;;;;;;1.25;1.25;;;;;-145.03;100.00;62373.16;5057349;28;45461;-75
2022/08/22 09:12:47;;;;;;;;;2.50;2.50;;;;;-145.03;100.00;62373.16;5053430;28;45518;-75
2022/08/22 09:15:25;;;;;;;;;1.25;1.25;;;;;-145.03;100.00;62373.16;5057628;28;45496;-75
2022/08/22 09:18:07;;;;;;;;;2.00;2.00;;;;;-145.03;100.00;62373.16;5056977;28;47221;-76
2022/08/22 09:20:49;;;;;;;;;2.25;2.25;;;;;-145.03;100.00;62373.16;5055839;28;46423;-76
2022/08/22 09:23:43;;;;;;;;;1.25;1.00;;;;;-145.03;100.00;62373.16;5037450;28;45476;-76
2022/08/22 09:26:34;;;;;;;;;1.75;1.75;;;;;-145.03;100.00;62373.16;5037517;28;45512;-75
2022/08/22 09:29:53;;;;;;;;;1.00;1.00;;;;;-145.03;100.00;62373.16;5037062;28;46356;-72
2022/08/22 09:32:27;;;;;;;;;1.50;1.50;;;;;-145.03;100.00;62373.16;5019281;28;45529;-72
2022/08/22 09:35:13;;;;;;;;;2.00;2.00;;;;;-145.03;100.00;62373.16;5037093;28;45452;-72
2022/08/22 09:37:57;;;;;;;;;3.25;1.50;;;;;-145.03;100.00;62373.16;5037513;28;45454;-72
2022/08/22 09:40:24;;;;;;;;;2.00;1.75;;;;;-145.03;100.00;62373.16;5036932;28;45438;-72
2022/08/22 09:43:29;;;;;;;;;1.75;1.75;;;;;-145.03;100.00;62373.16;5058682;28;45457;-72
2022/08/22 09:46:16;;;;;;;;;2.75;1.75;;;;;-145.03;100.00;62373.16;5077272;27;45465;-72
2022/08/22 09:48:55;;;;;;;;;1.75;1.75;;;;;-145.03;100.00;62373.16;5076276;28;45428;-72
2022/08/22 09:51:37;;;;;;;;;1.75;1.75;;;;;-145.03;100.00;62373.16;5076933;28;45416;-72
2022/08/22 09:54:18;;;;;;;;;0.25;0.25;;;;;-145.03;100.00;62373.16;5076951;27;45661;-72
2022/08/22 09:56:50;;;;;;;;;1.00;0.00;;;;;-145.03;100.00;62373.16;5075485;28;45523;-72
2022/08/22 09:59:35;;;;;;;;;1.25;0.00;;;;;-145.03;100.00;62373.16;5077273;28;45407;-72
2022/08/22 10:02:58;;;;;;;;;1.00;1.00;;;;;-145.03;100.00;62373.16;5075034;28;48589;-70
2022/08/22 10:05:37;;;;;;;;;0.00;0.00;;;;;-145.03;100.00;62373.16;5053560;28;45618;-69
2022/08/22 10:08:40;;;;;;;;;1.25;1.25;;;;;-145.03;100.00;62373.16;5054465;28;45660;-69
2022/08/22 10:11:45;;;;;;;;;1.00;1.00;;;;;-145.03;100.00;62373.16;5054463;28;45444;-73
2022/08/22 10:14:19;;;;;;;;;1.75;1.75;;;;;-145.03;100.00;62373.16;4938705;28;48314;-72
2022/08/22 10:16:48;;;;;;;;;0.00;0.00;;;;;-145.03;100.00;62373.16;4955068;28;45688;-72
2022/08/22 10:19:36;;;;;;;;;0.00;0.00;;;;;-145.03;100.00;62373.16;4955109;28;45412;-72
2022/08/22 10:22:04;;;;;;;;;0.00;0.00;;;;;-145.03;100.00;62373.16;4955308;28;45539;-72
2022/08/22 10:24:44;;;;;;;;;1.00;0.50;;;;;-145.03;100.00;62373.16;4954673;28;45538;-72
2022/08/22 10:27:16;;;;;;;;;1.00;1.00;;;;;-145.03;100.00;62373.16;4954868;28;45468;-69
2022/08/22 10:30:11;;;;;;;;;0.00;0.00;;;;;-145.03;100.00;62373.16;4955160;28;45377;-73
2022/08/22 10:32:45;;;;;;;;;0.00;0.00;;;;;-145.03;100.00;62373.16;4955057;28;45498;-74
2022/08/22 10:35:19;;;;;;;;;0.67;0.67;;;;;-145.03;100.00;62373.16;4956450;28;45753;-74
2022/08/22 10:37:58;;;;;;;;;0.33;0.33;;;;;-145.03;100.00;62373.16;4973996;28;45847;-74
2022/08/22 10:40:36;;;;;;;;;0.33;0.33;;;;;-145.03;100.00;62373.16;4974182;28;45509;-73
2022/08/22 10:43:04;;;;;;;;;1.00;1.00;;;;;-145.03;100.00;62373.16;4974098;28;45612;-74
2022/08/22 10:45:38;;;;;;;;;1.00;0.00;;;;;-145.03;100.00;62373.16;4974222;28;46130;-76
2022/08/22 10:48:03;;;;;;;;;1.33;0.00;;;;;-145.03;100.00;62373.16;5013238;28;45500;-76
2022/08/22 10:50:33;;;;;;;;;1.67;0.67;;;;;-145.03;100.00;62373.16;5056266;28;45465;-74
2022/08/22 10:55:57;;;;;;;;;0.00;0.00;;;;;-145.03;100.00;62373.16;5075924;28;45824;-74
2022/08/22 10:58:30;;;;;;;;;0.00;0.00;;;;;-145.03;100.00;62373.16;5076216;28;45443;-77
2022/08/22 11:00:56;;;;;;;;;1.00;1.00;;;;;-145.03;100.00;62373.16;5091965;27;45552;-77
2022/08/22 11:03:53;;;;;;;;;1.00;0.00;;;;;-145.03;100.00;62373.16;5076328;28;45555;-77
2022/08/22 11:06:28;;;;;;;;;0.67;0.67;;;;;-145.03;100.00;62373.16;5075894;27;46832;-77
2022/08/22 11:08:58;;;;;;;;;2.00;0.00;;;;;-145.03;100.00;62373.16;5076125;28;45404;-73
2022/08/22 11:11:41;;;;;;;;;1.00;1.00;;;;;-145.03;100.00;62373.16;5075998;27;45539;-74
2022/08/22 11:14:31;;;;;;;;;0.00;0.00;;;;;-145.03;100.00;62373.16;5076442;28;45587;-74
2022/08/22 11:17:27;;;;;;;;;2.00;0.33;;;;;-145.03;100.00;62373.16;5076098;28;46770;-74
2022/08/22 11:20:37;;;;;;;;;0.00;0.00;;;;;-145.03;100.00;62373.16;5079416;28;45376;-74
2022/08/22 11:23:16;;;;;;;;;1.00;1.00;;;;;-145.03;100.00;62373.16;5039962;28;45485;-76
2022/08/22 11:26:26;;;;;;;;;1.33;1.00;;;;;-145.03;100.00;62373.16;5057001;28;45568;-76
2022/08/22 11:29:23;;;;;;;;;0.00;0.00;;;;;-145.03;100.00;62373.16;4957700;28;46326;-77
2022/08/22 11:31:58;;;;;;;;;0.00;0.00;;;;;-145.03;100.00;62373.16;4957465;28;45471;-76
2022/08/22 11:34:42;;;;;;;;;0.00;0.00;;;;;-145.03;100.00;62373.16;4957596;28;45548;-76
2022/08/22 11:37:21;;;;;;;;;0.67;0.00;;;;;-145.03;100.00;62373.16;4938552;28;45517;-76
2022/08/22 11:39:55;;;;;;;;;0.00;0.00;;;;;-145.03;100.00;62373.16;4937663;28;45529;-76
2022/08/22 11:42:32;;;;;;;;;0.00;0.00;;;;;-145.03;100.00;62373.16;4939111;28;45701;-76
2022/08/22 11:45:04;;;;;;;;;0.33;0.33;;;;;-145.03;100.00;62373.16;4941264;28;45607;-76
2022/08/22 11:47:38;;;;;;;;;0.00;0.00;;;;;-145.03;100.00;62373.16;4957558;28;45643;-76
2022/08/22 11:50:28;;;;;;;;;2.00;0.00;;;;;-145.03;100.00;62373.16;4957421;28;45477;-76
2022/08/22 11:53:16;;;;;;;;;0.00;0.00;;;;;-145.03;100.00;62373.16;4961129;28;45369;-76
2022/08/22 11:56:10;;;;;;;;;0.00;0.00;;;;;-145.03;100.00;62373.16;4979815;28;45513;-76
2022/08/22 11:58:55;;;;;;;;;0.00;0.00;;;;;-145.03;100.00;62373.16;4987888;28;45505;-75
2022/08/22 12:01:32;;;;;;;;;0.00;0.00;;;;;-145.03;100.00;62373.16;4996398;28;47115;-76
2022/08/22 12:04:09;;;;;;;;;0.00;0.00;;;;;-145.03;100.00;62373.16;5026578;28;45479;-76
2022/08/22 12:07:06;;;;;;;;;0.75;0.75;;;;;-145.03;100.00;62373.16;5078818;28;45518;-75
2022/08/22 12:09:54;;;;;;;;;0.75;0.00;;;;;-145.03;100.00;62373.16;5074337;28;45468;-75
2022/08/22 12:12:34;;;;;;;;;0.00;0.00;;;;;-145.03;100.00;62373.16;5078684;27;46259;-75
2022/08/22 12:14:59;;;;;;;;;0.00;0.00;;;;;-145.03;100.00;62373.16;5078944;27;45471;-75